Time;durP1;ratioP1;P1;durP2;ratioP2;P2;SDS_P1;SDS_P2;PMS_P1;PMS_P2;Temp;Humidity;BMP_temperature;BMP_pressure;BME280_temperature;BME280_humidity;BME280_pressure;Samples;Min_cycle;Max_cycle;Signal;HPM_P1;HPM_P2
2024/03/07 00:03:05;;;;;;;5.60;2.70;;;;;;;11.09;100.00;101383.41;10507218;27;20048;-83
2024/03/07 00:08:29;;;;;;;6.28;3.13;;;;;;;11.09;100.00;101382.53;10495178;28;20068;-82
2024/03/07 00:13:53;;;;;;;6.05;3.05;;;;;;;11.03;100.00;101380.63;10466545;28;20048;-83
2024/03/07 00:19:16;;;;;;;7.78;3.10;;;;;;;10.91;100.00;101376.81;10522970;28;20106;-83
2024/03/07 00:24:38;;;;;;;5.78;2.40;;;;;;;10.84;100.00;101381.03;10521854;28;20064;-83
2024/03/07 00:30:02;;;;;;;5.68;3.20;;;;;;;10.88;100.00;101382.03;10507587;28;20040;-83
2024/03/07 00:35:25;;;;;;;5.20;2.80;;;;;;;10.78;100.00;101373.88;10479096;28;20041;-83
2024/03/07 00:40:48;;;;;;;4.85;4.25;;;;;;;10.77;100.00;101372.09;10478131;28;20052;-83
2024/03/07 00:46:13;;;;;;;9.13;6.88;;;;;;;10.83;100.00;101360.75;10505292;28;20543;-84
2024/03/07 00:51:36;;;;;;;6.68;5.97;;;;;;;11.05;100.00;101356.88;10507599;28;20044;-84
2024/03/07 00:56:58;;;;;;;5.50;3.88;;;;;;;11.11;100.00;101355.28;10506207;28;20086;-83
2024/03/07 01:02:22;;;;;;;6.85;5.80;;;;;;;10.83;100.00;101359.91;10520801;28;20467;-83
2024/03/07 01:07:46;;;;;;;6.30;4.20;;;;;;;10.58;100.00;101353.09;10478761;28;20477;-83
2024/03/07 01:13:15;;;;;;;6.82;5.05;;;;;;;10.43;100.00;101358.03;10498538;28;20451;-83
2024/03/07 01:18:39;;;;;;;5.40;3.83;;;;;;;10.50;100.00;101349.41;10504405;28;20127;-84
2024/03/07 01:24:02;;;;;;;5.80;3.97;;;;;;;10.43;100.00;101355.38;10508800;28;20041;-83
2024/03/07 01:29:24;;;;;;;9.15;5.30;;;;;;;10.42;100.00;101346.56;10491496;28;20056;-83
2024/03/07 01:34:49;;;;;;;7.75;5.03;;;;;;;10.26;100.00;101358.47;10471491;28;20109;-83
2024/03/07 01:40:13;;;;;;;6.05;4.32;;;;;;;10.19;100.00;101352.97;10477760;28;20051;-84
2024/03/07 01:45:38;;;;;;;7.88;3.97;;;;;;;10.20;100.00;101352.13;10463417;28;20123;-83
2024/03/07 01:51:03;;;;;;;4.70;3.50;;;;;;;10.57;100.00;101364.50;10511332;28;20094;-83
2024/03/07 01:56:26;;;;;;;3.40;3.10;;;;;;;10.58;100.00;101368.94;10519947;28;20056;-83
2024/03/07 02:01:49;;;;;;;4.18;3.15;;;;;;;10.49;100.00;101372.25;10511477;28;20049;-84
2024/03/07 02:07:13;;;;;;;7.45;4.28;;;;;;;10.22;100.00;101372.44;10499318;28;20044;-83
2024/03/07 02:12:36;;;;;;;5.32;3.53;;;;;;;10.07;100.00;101379.00;10471140;28;20059;-83
2024/03/07 02:17:58;;;;;;;3.97;2.72;;;;;;;10.08;100.00;101384.31;10495006;28;20036;-84
2024/03/07 02:23:22;;;;;;;4.05;2.65;;;;;;;10.07;100.00;101390.44;10498813;28;20110;-83
2024/03/07 02:28:45;;;;;;;5.40;3.67;;;;;;;10.19;100.00;101390.81;10498986;28;20051;-83
2024/03/07 02:34:08;;;;;;;11.43;10.32;;;;;;;10.27;100.00;101402.47;10491894;28;20145;-83
2024/03/07 02:39:32;;;;;;;7.47;5.50;;;;;;;10.20;100.00;101399.63;10484675;28;20072;-83
2024/03/07 02:44:54;;;;;;;9.65;8.85;;;;;;;10.16;100.00;101390.72;10483930;28;20094;-82
2024/03/07 02:50:17;;;;;;;7.95;7.03;;;;;;;10.09;100.00;101394.03;10484496;28;20052;-82
2024/03/07 02:55:41;;;;;;;4.20;3.80;;;;;;;10.06;100.00;101386.00;10470466;28;20109;-83
2024/03/07 03:01:04;;;;;;;7.50;4.65;;;;;;;9.82;100.00;101391.50;10502152;28;20037;-83
2024/03/07 03:06:26;;;;;;;8.75;3.28;;;;;;;9.74;100.00;101384.22;10497649;28;20071;-82
2024/03/07 03:11:51;;;;;;;4.10;3.05;;;;;;;9.74;100.00;101390.38;10487650;28;20064;-84
2024/03/07 03:17:14;;;;;;;6.57;3.88;;;;;;;9.98;100.00;101391.06;10497357;28;20083;-83
2024/03/07 03:22:36;;;;;;;6.82;4.22;;;;;;;10.14;100.00;101394.13;10482455;28;20055;-82
2024/03/07 03:28:00;;;;;;;7.97;5.57;;;;;;;9.90;100.00;101402.28;10482622;28;20047;-84
2024/03/07 03:33:23;;;;;;;6.28;4.22;;;;;;;9.76;100.00;101401.88;10503085;28;20106;-83
2024/03/07 03:38:45;;;;;;;5.35;3.25;;;;;;;10.34;100.00;101396.50;10491263;28;20040;-82
2024/03/07 03:44:09;;;;;;;5.25;2.85;;;;;;;10.62;100.00;101403.41;10522518;28;20047;-81
2024/03/07 03:49:32;;;;;;;13.45;11.38;;;;;;;10.51;100.00;101410.13;10482260;28;20447;-83
2024/03/07 03:54:54;;;;;;;13.00;9.95;;;;;;;10.62;100.00;101419.25;10482108;28;20044;-83
2024/03/07 04:00:22;;;;;;;23.65;20.55;;;;;;;10.44;100.00;101417.84;10508129;28;20067;-83
2024/03/07 04:05:46;;;;;;;9.15;7.10;;;;;;;10.39;100.00;101430.94;10495728;28;20047;-82
2024/03/07 04:11:10;;;;;;;5.72;3.60;;;;;;;10.63;100.00;101425.44;10479215;28;20047;-82
2024/03/07 04:16:34;;;;;;;5.65;3.70;;;;;;;10.78;100.00;101420.50;10481094;28;20102;-82
2024/03/07 04:21:56;;;;;;;6.10;4.30;;;;;;;10.69;100.00;101425.56;10480044;28;20086;-82
2024/03/07 04:27:19;;;;;;;8.65;4.45;;;;;;;10.58;100.00;101421.75;10507500;28;20106;-83
2024/03/07 04:32:43;;;;;;;7.32;3.15;;;;;;;10.83;100.00;101428.56;10493886;28;20055;-84
2024/03/07 04:38:09;;;;;;;6.82;3.22;;;;;;;10.91;100.00;101438.44;10501859;28;20400;-83
2024/03/07 04:43:33;;;;;;;7.35;2.88;;;;;;;11.09;100.00;101428.31;10483241;28;20485;-82
2024/03/07 04:48:57;;;;;;;6.72;3.00;;;;;;;11.23;100.00;101431.31;10517689;28;20105;-83
2024/03/07 04:54:19;;;;;;;5.40;3.38;;;;;;;11.13;100.00;101430.22;10493366;28;20052;-83
2024/03/07 04:59:42;;;;;;;4.22;2.80;;;;;;;11.36;100.00;101427.19;10468311;28;20056;-83
2024/03/07 05:05:07;;;;;;;4.15;2.60;;;;;;;11.53;100.00;101416.16;10515545;28;20071;-83
2024/03/07 05:10:30;;;;;;;6.95;4.50;;;;;;;11.69;100.00;101422.66;10492933;28;20060;-82
2024/03/07 05:15:52;;;;;;;4.60;2.80;;;;;;;13.12;100.00;101414.81;10492045;28;20048;-83
2024/03/07 05:21:37;;;;;;;6.53;4.10;;;;;;;15.39;100.00;101405.84;10478162;28;20044;-83
2024/03/07 05:27:00;;;;;;;3.55;2.08;;;;;;;16.64;100.00;101411.72;10478241;28;20052;-83
2024/03/07 05:32:23;;;;;;;5.82;2.10;;;;;;;17.61;100.00;101413.44;10512327;28;20194;-83
2024/03/07 05:37:47;;;;;;;4.18;2.53;;;;;;;18.79;100.00;101407.50;10498775;28;20063;-82
2024/03/07 05:43:10;;;;;;;2.58;2.05;;;;;;;20.11;100.00;101422.25;10491579;28;20046;-82
2024/03/07 05:48:32;;;;;;;3.03;1.73;;;;;;;21.73;84.87;101418.72;10505013;28;20300;-82
2024/03/07 05:53:56;;;;;;;3.60;1.83;;;;;;;22.13;78.14;101417.94;10465138;28;20116;-82
2024/03/07 05:59:19;;;;;;;3.03;1.80;;;;;;;23.07;71.38;101422.94;10476282;28;20044;-84
2024/03/07 06:04:42;;;;;;;3.28;1.52;;;;;;;23.61;65.19;101421.53;10477222;28;20052;-84
2024/03/07 06:10:11;;;;;;;7.63;1.90;;;;;;;23.64;64.77;101421.41;10481467;28;20041;-83
2024/03/07 06:15:34;;;;;;;6.00;2.28;;;;;;;24.84;56.76;101425.91;10476278;28;20128;-83
2024/03/07 06:20:57;;;;;;;3.35;1.85;;;;;;;25.14;52.80;101429.41;10516223;28;20040;-82
2024/03/07 06:26:36;;;;;;;3.40;1.58;;;;;;;24.63;53.43;101424.78;10504025;28;20052;-83
2024/03/07 06:32:00;;;;;;;1.92;1.45;;;;;;;25.00;51.82;101431.72;10498075;28;20264;-82
2024/03/07 06:37:22;;;;;;;3.40;1.45;;;;;;;25.65;48.28;101444.81;10485183;28;20045;-83
2024/03/07 06:42:47;;;;;;;5.32;1.75;;;;;;;25.99;46.55;101448.03;10490297;28;20045;-83
2024/03/07 06:48:10;;;;;;;3.53;2.38;;;;;;;27.10;42.96;101440.97;10495689;28;20052;-84
2024/03/07 06:53:33;;;;;;;4.47;3.22;;;;;;;28.09;40.82;101444.75;10483306;28;20144;-82
2024/03/07 06:58:58;;;;;;;7.15;3.75;;;;;;;30.32;36.96;101455.19;10470559;28;20123;-82
2024/03/07 07:04:20;;;;;;;5.18;2.33;;;;;;;31.31;33.67;101454.06;10483564;28;20052;-83
2024/03/07 07:09:44;;;;;;;4.95;2.38;;;;;;;32.30;32.21;101463.34;10511251;28;20388;-82
2024/03/07 07:15:10;;;;;;;2.33;1.83;;;;;;;32.56;31.00;101466.31;10478714;28;20081;-82
2024/03/07 07:20:34;;;;;;;5.95;3.65;;;;;;;32.73;30.89;101466.09;10492855;28;20050;-82
2024/03/07 07:25:56;;;;;;;3.47;2.10;;;;;;;32.76;29.22;101468.59;10492811;28;20068;-83
2024/03/07 07:31:20;;;;;;;5.10;3.25;;;;;;;30.84;31.62;101469.50;10524344;28;20110;-83
2024/03/07 07:36:43;;;;;;;4.65;2.17;;;;;;;32.68;28.78;101477.34;10494617;28;20052;-83
2024/03/07 07:42:06;;;;;;;6.20;1.80;;;;;;;33.53;27.68;101473.47;10477360;28;20082;-86
2024/03/07 07:47:32;;;;;;;4.50;2.30;;;;;;;34.70;26.17;101463.19;10494473;28;20275;-82
2024/03/07 07:52:56;;;;;;;3.38;1.80;;;;;;;35.17;25.50;101473.38;10482263;28;20157;-81
2024/03/07 07:58:19;;;;;;;5.28;2.17;;;;;;;35.58;24.36;101461.94;10513226;28;20044;-81
2024/03/07 08:03:44;;;;;;;5.35;1.95;;;;;;;36.03;24.00;101462.09;10480593;28;20056;-82
2024/03/07 08:09:09;;;;;;;8.68;2.78;;;;;;;36.21;23.46;101455.16;10478731;28;20052;-81
2024/03/07 08:14:32;;;;;;;6.20;3.30;;;;;;;36.53;23.28;101448.88;10507826;28;20126;-80
2024/03/07 08:19:56;;;;;;;6.35;4.32;;;;;;;36.54;23.11;101457.00;10493226;28;20045;-81
2024/03/07 08:25:20;;;;;;;5.63;2.90;;;;;;;36.60;22.71;101459.25;10510361;28;20674;-82
2024/03/07 08:30:42;;;;;;;8.23;3.67;;;;;;;36.23;22.50;101455.91;10472888;28;20044;-81
2024/03/07 08:36:09;;;;;;;5.78;2.42;;;;;;;36.16;22.01;101443.59;10476440;28;20064;-81
2024/03/07 08:41:36;;;;;;;7.47;2.88;;;;;;;36.08;22.32;101440.59;10507042;28;20072;-78
2024/03/07 08:46:59;;;;;;;4.47;2.75;;;;;;;37.08;21.33;101450.69;10489992;28;20087;-79
2024/03/07 08:52:23;;;;;;;6.88;3.15;;;;;;;37.03;21.48;101441.91;10492582;28;20106;-81
2024/03/07 08:57:46;;;;;;;7.75;3.80;;;;;;;37.26;21.30;101440.00;10478334;28;20044;-81
2024/03/07 09:03:10;;;;;;;7.75;4.30;;;;;;;37.36;21.05;101425.28;10477709;28;20051;-80
2024/03/07 09:08:34;;;;;;;5.22;3.67;;;;;;;37.05;21.19;101424.25;10473598;28;20533;-80
2024/03/07 09:13:57;;;;;;;5.97;3.60;;;;;;;35.41;22.52;101426.69;10518739;27;20074;-78
2024/03/07 09:19:23;;;;;;;3.95;2.60;;;;;;;34.48;23.40;101423.72;10491744;28;20230;-82
2024/03/07 09:24:48;;;;;;;10.45;5.55;;;;;;;33.34;24.91;101427.31;10491371;28;20485;-85
2024/03/07 09:30:14;;;;;;;4.32;2.88;;;;;;;33.31;25.78;101429.34;10499066;28;20122;-81
2024/03/07 09:35:38;;;;;;;7.00;3.70;;;;;;;32.86;25.97;101423.25;10489458;28;20548;-85
2024/03/07 09:41:02;;;;;;;8.80;5.20;;;;;;;32.83;26.72;101426.19;10471422;28;20081;-88
2024/03/07 09:46:25;;;;;;;6.35;2.13;;;;;;;33.57;26.04;101429.31;10492328;28;20446;-85
2024/03/07 09:51:54;;;;;;;5.95;2.50;;;;;;;34.14;25.74;101426.16;10492493;28;20056;-83
2024/03/07 09:57:19;;;;;;;2.83;2.30;;;;;;;34.21;25.92;101432.06;10490961;28;20056;-81
2024/03/07 10:02:44;;;;;;;10.35;6.35;;;;;;;33.89;26.41;101428.91;10489723;28;20362;-82
2024/03/07 10:08:07;;;;;;;8.50;5.00;;;;;;;33.80;26.85;101430.47;10512321;28;20132;-81
2024/03/07 10:13:31;;;;;;;3.83;2.30;;;;;;;34.54;26.86;101415.91;10476485;28;20525;-83
2024/03/07 10:18:54;;;;;;;7.35;2.47;;;;;;;33.93;26.91;101423.13;10497515;28;20135;-86
2024/03/07 10:24:17;;;;;;;4.43;2.72;;;;;;;34.11;26.90;101415.44;10468412;28;20044;-81
2024/03/07 10:29:42;;;;;;;3.78;2.33;;;;;;;34.24;26.46;101410.84;10517969;28;20045;-92
2024/03/07 10:35:08;;;;;;;4.65;3.50;;;;;;;33.67;27.19;101407.63;10498213;28;20170;-86
2024/03/07 10:40:30;;;;;;;8.23;3.15;;;;;;;32.67;28.40;101404.47;10498664;28;20045;-87
2024/03/07 10:45:58;;;;;;;7.03;4.22;;;;;;;33.29;27.38;101404.81;10517748;28;20085;-86
2024/03/07 10:51:31;;;;;;;4.85;3.08;;;;;;;32.05;28.68;101397.53;10498057;28;20048;-90
2024/03/07 10:57:21;;;;;;;17.90;6.63;;;;;;;29.14;32.15;101399.78;10467426;28;20052;-91
2024/03/07 11:02:53;;;;;;;6.63;3.70;;;;;;;27.97;34.48;101391.88;10498692;28;20122;-90
2024/03/07 11:08:16;;;;;;;8.38;4.32;;;;;;;28.76;33.90;101390.81;10497368;28;20044;-90
2024/03/07 11:13:40;;;;;;;6.93;3.90;;;;;;;29.63;32.58;101389.94;10498238;28;20559;-88
2024/03/07 11:19:29;;;;;;;7.65;2.92;;;;;;;29.39;32.63;101383.09;10510414;28;20045;-89
2024/03/07 11:25:06;;;;;;;7.30;4.05;;;;;;;29.58;31.89;101372.97;10495347;28;20083;-91
2024/03/07 11:30:29;;;;;;;10.15;5.32;;;;;;;27.62;34.56;101358.25;10482337;28;20088;-89
2024/03/07 11:35:53;;;;;;;7.82;4.60;;;;;;;25.87;38.15;101351.06;10440305;28;20041;-89
2024/03/07 11:41:23;;;;;;;20.80;12.95;;;;;;;25.95;38.36;101354.38;10515379;28;20049;-89
2024/03/07 11:46:49;;;;;;;10.05;5.88;;;;;;;25.86;38.93;101360.16;10479459;28;20041;-91
2024/03/07 11:52:13;;;;;;;9.43;4.75;;;;;;;26.21;38.80;101347.94;10495128;28;20059;-94
2024/03/07 11:57:36;;;;;;;11.35;6.00;;;;;;;25.81;39.02;101354.00;10478966;28;20055;-85
2024/03/07 12:02:58;;;;;;;14.85;8.43;;;;;;;25.11;40.44;101342.16;10499744;28;20052;-84
2024/03/07 12:08:23;;;;;;;27.50;17.05;;;;;;;24.78;41.91;101345.06;10463522;28;20048;-82
2024/03/07 12:13:47;;;;;;;10.10;6.22;;;;;;;24.38;42.27;101348.19;10494187;28;20131;-86
2024/03/07 12:19:10;;;;;;;51.63;31.23;;;;;;;23.36;44.45;101347.63;10466934;28;20057;-82
2024/03/07 12:24:35;;;;;;;12.32;6.85;;;;;;;23.13;47.20;101332.06;10488007;28;20041;-88
2024/03/07 12:30:01;;;;;;;14.25;6.57;;;;;;;23.32;46.60;101329.75;10477502;28;20147;-89
2024/03/07 12:35:27;;;;;;;8.93;4.28;;;;;;;23.39;45.88;101329.53;10508847;28;20595;-93
2024/03/07 12:41:05;;;;;;;15.60;9.07;;;;;;;23.35;46.74;101325.19;10494209;28;20057;-92
2024/03/07 12:46:30;;;;;;;6.85;3.83;;;;;;;23.35;47.34;101316.22;10492105;28;20049;-92
2024/03/07 12:51:59;;;;;;;8.13;4.40;;;;;;;23.36;47.95;101317.97;10493473;28;20049;-87
2024/03/07 12:57:25;;;;;;;11.27;5.30;;;;;;;23.71;49.19;101320.56;10507601;28;20051;-88
2024/03/07 13:02:50;;;;;;;8.95;4.70;;;;;;;24.02;48.45;101319.66;10492262;28;20071;-87
2024/03/07 13:08:13;;;;;;;9.48;5.47;;;;;;;23.97;47.32;101325.16;10493297;28;20044;-87
2024/03/07 13:13:37;;;;;;;9.10;5.60;;;;;;;24.10;48.80;101323.84;10507286;28;20052;-88
2024/03/07 13:19:01;;;;;;;11.13;4.97;;;;;;;23.78;50.72;101316.75;10478564;28;20052;-88
2024/03/07 13:24:30;;;;;;;11.38;4.00;;;;;;;23.72;52.00;101314.25;10490992;28;20151;-89
2024/03/07 13:29:54;;;;;;;13.52;5.43;;;;;;;23.59;53.66;101306.56;10468732;28;20443;-91
2024/03/07 13:35:19;;;;;;;7.85;4.78;;;;;;;23.34;54.45;101317.13;10477738;28;20053;-90
2024/03/07 13:40:42;;;;;;;13.85;4.90;;;;;;;23.29;54.38;101308.31;10489071;28;20531;-81
2024/03/07 13:46:06;;;;;;;6.78;4.53;;;;;;;23.47;54.21;101301.50;10484168;28;20049;-83
2024/03/07 13:51:29;;;;;;;9.75;5.80;;;;;;;23.26;55.13;101301.16;10500824;28;20127;-87
2024/03/07 13:57:05;;;;;;;13.98;4.05;;;;;;;22.86;58.55;101306.75;10518812;28;20122;-87
2024/03/07 14:02:54;;;;;;;10.30;4.88;;;;;;;22.67;63.23;101300.03;10491241;28;20076;-87
2024/03/07 14:08:41;;;;;;;8.23;4.13;;;;;;;22.88;62.91;101312.09;10491960;28;20059;-87
2024/03/07 14:14:49;;;;;;;6.65;3.83;;;;;;;22.85;61.82;101314.88;10493392;28;20044;-86
2024/03/07 14:20:48;;;;;;;9.57;4.53;;;;;;;22.72;62.88;101311.56;10344302;28;20538;-88
2024/03/07 14:27:03;;;;;;;13.45;4.18;;;;;;;22.37;68.82;101316.97;10345733;28;20532;-89
2024/03/07 14:32:27;;;;;;;8.55;4.68;;;;;;;22.16;72.22;101319.25;10346201;28;20080;-83
2024/03/07 14:37:55;;;;;;;12.73;5.63;;;;;;;21.95;76.40;101325.06;10358571;28;20054;-84
2024/03/07 14:43:20;;;;;;;7.78;5.00;;;;;;;22.00;76.48;101331.25;10349179;28;20053;-82
2024/03/07 14:48:44;;;;;;;11.60;6.15;;;;;;;21.67;80.77;101334.63;10348765;28;20513;-86
2024/03/07 14:54:10;;;;;;;14.15;5.22;;;;;;;21.41;83.00;101346.81;10388815;28;20055;-89
2024/03/07 14:59:34;;;;;;;12.25;5.50;;;;;;;21.14;84.70;101338.34;10489510;28;20056;-86
2024/03/07 15:05:05;;;;;;;29.23;17.55;;;;;;;20.91;86.12;101336.09;10515735;28;20090;-80
2024/03/07 15:10:32;;;;;;;18.70;9.90;;;;;;;20.79;88.11;101333.63;10497243;28;20136;-90
2024/03/07 15:15:56;;;;;;;15.77;5.43;;;;;;;20.65;89.46;101342.78;10496457;28;20112;-80
2024/03/07 15:21:20;;;;;;;12.65;5.00;;;;;;;20.36;92.58;101342.34;10463141;28;20045;-86
2024/03/07 15:26:43;;;;;;;12.45;6.20;;;;;;;20.26;94.30;101340.72;10480126;28;20373;-81
2024/03/07 15:32:06;;;;;;;9.88;6.40;;;;;;;20.19;94.71;101334.53;10495858;28;20052;-84
2024/03/07 15:37:30;;;;;;;12.98;6.53;;;;;;;20.16;95.86;101345.31;10480912;28;20135;-81
2024/03/07 15:42:53;;;;;;;25.70;15.25;;;;;;;20.08;98.20;101346.34;10456921;28;20771;-83
2024/03/07 15:48:16;;;;;;;12.15;6.20;;;;;;;19.94;100.00;101343.84;10494501;28;20083;-83
2024/03/07 15:53:41;;;;;;;14.88;6.97;;;;;;;19.83;100.00;101351.13;10522603;28;20040;-83
2024/03/07 15:59:05;;;;;;;12.65;6.53;;;;;;;19.64;100.00;101347.78;10513867;28;20090;-85
2024/03/07 16:04:27;;;;;;;13.48;5.68;;;;;;;19.43;100.00;101348.00;10479609;28;20156;-85
2024/03/07 16:09:53;;;;;;;12.57;6.30;;;;;;;19.30;100.00;101354.41;10494361;28;20055;-84
2024/03/07 16:15:16;;;;;;;11.00;5.32;;;;;;;19.20;100.00;101352.72;10496907;28;20098;-84
2024/03/07 16:20:39;;;;;;;14.52;6.07;;;;;;;19.01;100.00;101346.69;10520900;28;20102;-84
2024/03/07 16:26:05;;;;;;;13.85;5.35;;;;;;;18.97;100.00;101342.28;10479951;28;20447;-83
2024/03/07 16:31:28;;;;;;;13.27;5.88;;;;;;;19.00;100.00;101343.13;10519354;28;20098;-83
2024/03/07 16:36:56;;;;;;;16.50;5.70;;;;;;;19.04;100.00;101341.28;10476831;28;20079;-83
2024/03/07 16:42:23;;;;;;;10.07;5.35;;;;;;;19.00;100.00;101339.53;10479594;28;20048;-83
2024/03/07 16:47:56;;;;;;;20.08;5.22;;;;;;;18.91;100.00;101335.16;10452934;28;20067;-82
2024/03/07 16:53:19;;;;;;;13.85;5.35;;;;;;;18.88;100.00;101340.56;10457206;28;20083;-82
2024/03/07 16:58:44;;;;;;;19.98;7.85;;;;;;;18.83;100.00;101345.06;10522079;28;20169;-83
2024/03/07 17:04:07;;;;;;;14.25;8.77;;;;;;;18.81;100.00;101346.88;10522082;28;20480;-84
2024/03/07 17:09:30;;;;;;;16.80;10.75;;;;;;;18.69;100.00;101342.50;10493156;28;20044;-83
2024/03/07 17:14:55;;;;;;;21.25;12.07;;;;;;;18.36;100.00;101336.50;10478460;28;20792;-84
2024/03/07 17:20:23;;;;;;;18.15;11.68;;;;;;;18.27;100.00;101329.41;10478358;28;20040;-83
2024/03/07 17:25:51;;;;;;;12.63;6.53;;;;;;;18.17;100.00;101333.06;10477752;28;20052;-84
2024/03/07 17:31:17;;;;;;;12.10;6.78;;;;;;;18.18;100.00;101330.34;10491873;28;20041;-83
2024/03/07 17:36:44;;;;;;;11.60;6.82;;;;;;;18.11;100.00;101331.31;10477963;28;20044;-83
2024/03/07 17:42:11;;;;;;;14.32;6.38;;;;;;;18.09;100.00;101343.78;10477289;28;20052;-84
2024/03/07 17:47:35;;;;;;;13.23;5.18;;;;;;;18.15;100.00;101343.75;10472709;28;20052;-82
2024/03/07 17:53:00;;;;;;;11.25;5.45;;;;;;;18.07;100.00;101348.25;10491917;28;20064;-83
2024/03/07 17:58:25;;;;;;;10.25;5.45;;;;;;;17.76;100.00;101360.88;10518859;28;20048;-83
2024/03/07 18:03:54;;;;;;;12.07;6.85;;;;;;;17.42;100.00;101354.75;10499809;28;20544;-82
2024/03/07 18:09:27;;;;;;;16.63;7.40;;;;;;;16.86;100.00;101359.28;10477835;28;20053;-86
2024/03/07 18:14:52;;;;;;;25.85;15.73;;;;;;;16.62;100.00;101365.50;10477744;28;20047;-89
2024/03/07 18:20:20;;;;;;;16.98;8.57;;;;;;;16.10;100.00;101364.50;10486476;28;20052;-89
2024/03/07 18:25:43;;;;;;;17.45;8.70;;;;;;;16.16;100.00;101369.84;10476277;28;20519;-89
2024/03/07 18:31:14;;;;;;;18.05;8.30;;;;;;;16.05;100.00;101376.91;10512737;28;20045;-89
2024/03/07 18:36:39;;;;;;;18.00;8.70;;;;;;;15.89;100.00;101384.84;10484920;28;20446;-93
2024/03/07 18:42:02;;;;;;;18.83;7.60;;;;;;;15.86;100.00;101390.19;10476601;28;20059;-95
2024/03/07 18:47:26;;;;;;;14.32;7.90;;;;;;;15.84;100.00;101397.25;10500190;28;20059;-87
2024/03/07 18:52:52;;;;;;;26.92;17.17;;;;;;;16.08;100.00;101398.25;10478457;28;20081;-84
2024/03/07 18:58:14;;;;;;;15.20;9.35;;;;;;;15.97;100.00;101391.97;10483127;28;20139;-87
2024/03/07 19:03:37;;;;;;;12.10;6.80;;;;;;;15.82;100.00;101400.78;10483081;28;20555;-84
2024/03/07 19:09:02;;;;;;;16.42;8.07;;;;;;;15.48;100.00;101395.28;10494673;28;20052;-84
2024/03/07 19:14:25;;;;;;;21.48;6.57;;;;;;;15.28;100.00;101399.59;10507415;28;20041;-84
2024/03/07 19:19:47;;;;;;;18.63;6.70;;;;;;;15.23;100.00;101397.78;10478145;28;20098;-81
2024/03/07 19:25:14;;;;;;;15.98;8.50;;;;;;;15.03;100.00;101395.84;10498043;28;20504;-81
2024/03/07 19:30:36;;;;;;;20.08;8.40;;;;;;;14.87;100.00;101399.28;10516121;28;20060;-80
2024/03/07 19:36:01;;;;;;;17.23;7.45;;;;;;;14.79;100.00;101400.06;10503632;28;20052;-81
2024/03/07 19:41:26;;;;;;;41.08;26.75;;;;;;;14.90;100.00;101398.41;10488910;28;20048;-84
2024/03/07 19:46:49;;;;;;;38.97;21.05;;;;;;;14.89;100.00;101389.56;10497732;28;20571;-87
2024/03/07 19:52:12;;;;;;;71.30;35.90;;;;;;;14.87;100.00;101391.31;10466155;28;20045;-80
2024/03/07 19:57:38;;;;;;;42.13;24.30;;;;;;;14.64;100.00;101385.78;10497946;28;20412;-81
2024/03/07 20:03:03;;;;;;;33.90;22.92;;;;;;;14.46;100.00;101392.69;10497100;28;20076;-81
2024/03/07 20:08:26;;;;;;;20.45;12.93;;;;;;;14.40;100.00;101387.31;10477615;28;20079;-85
2024/03/07 20:13:51;;;;;;;37.00;28.83;;;;;;;14.39;100.00;101386.41;10502325;28;20048;-83
2024/03/07 20:19:13;;;;;;;25.15;18.20;;;;;;;14.12;100.00;101376.38;10479871;28;20045;-84
2024/03/07 20:24:38;;;;;;;28.75;22.88;;;;;;;14.03;100.00;101383.34;10493448;28;20142;-83
2024/03/07 20:30:02;;;;;;;72.18;51.90;;;;;;;13.86;100.00;101386.69;10479759;28;20101;-84
2024/03/07 20:35:24;;;;;;;25.13;15.63;;;;;;;13.59;100.00;101380.16;10493639;28;20423;-84
2024/03/07 20:40:47;;;;;;;28.05;19.95;;;;;;;13.62;100.00;101383.72;10477804;28;20127;-83
2024/03/07 20:46:11;;;;;;;18.42;8.82;;;;;;;13.52;100.00;101388.00;10476158;28;20397;-82
2024/03/07 20:51:36;;;;;;;19.25;9.07;;;;;;;13.64;100.00;101381.09;10503100;28;20036;-82
2024/03/07 20:56:59;;;;;;;68.32;46.10;;;;;;;13.70;100.00;101382.06;10490736;28;20165;-83
2024/03/07 21:02:24;;;;;;;27.33;16.27;;;;;;;13.64;100.00;101386.41;10458519;28;20496;-83
2024/03/07 21:07:47;;;;;;;23.77;15.15;;;;;;;13.63;100.00;101382.88;10478417;28;20039;-83
2024/03/07 21:13:13;;;;;;;18.55;9.52;;;;;;;13.55;100.00;101376.56;10478025;28;20106;-84
2024/03/07 21:18:37;;;;;;;13.13;9.10;;;;;;;13.47;100.00;101383.50;10477208;28;20516;-81
2024/03/07 21:24:00;;;;;;;14.88;6.70;;;;;;;13.78;100.00;101376.88;10503142;28;20056;-83
2024/03/07 21:29:22;;;;;;;23.52;13.10;;;;;;;14.16;100.00;101369.34;10475787;28;20144;-82
2024/03/07 21:34:47;;;;;;;19.52;10.93;;;;;;;14.38;100.00;101367.81;10475146;28;20048;-82
2024/03/07 21:40:15;;;;;;;23.60;9.38;;;;;;;14.58;100.00;101364.47;10491857;28;20123;-82
2024/03/07 21:45:37;;;;;;;17.80;10.15;;;;;;;14.64;100.00;101369.81;10476670;28;20040;-82
2024/03/07 21:51:02;;;;;;;20.23;7.50;;;;;;;14.37;100.00;101343.00;10491244;28;20063;-81
2024/03/07 21:56:28;;;;;;;9.48;3.80;;;;;;;14.04;100.00;101340.00;10492082;28;20132;-80
2024/03/07 22:01:50;;;;;;;19.05;5.78;;;;;;;14.00;100.00;101331.09;10489602;28;20525;-80
2024/03/07 22:07:18;;;;;;;21.77;16.77;;;;;;;13.71;100.00;101337.84;10514452;28;20083;-80
2024/03/07 22:12:42;;;;;;;17.83;9.40;;;;;;;13.39;100.00;101335.66;10475719;28;20056;-80
2024/03/07 22:18:06;;;;;;;29.02;14.32;;;;;;;13.32;100.00;101332.94;10490830;28;20136;-82
2024/03/07 22:23:32;;;;;;;18.13;8.48;;;;;;;13.47;100.00;101333.13;10497936;28;20127;-81
2024/03/07 22:28:55;;;;;;;16.85;7.55;;;;;;;13.41;100.00;101335.69;10484996;28;20048;-81
2024/03/07 22:34:20;;;;;;;14.68;4.60;;;;;;;13.31;100.00;101334.69;10485696;28;20051;-81
2024/03/07 22:39:46;;;;;;;11.80;4.72;;;;;;;13.41;100.00;101328.63;10485524;28;20072;-82
2024/03/07 22:45:10;;;;;;;13.15;4.93;;;;;;;13.43;100.00;101326.91;10527267;28;20080;-81
2024/03/07 22:50:34;;;;;;;13.48;4.07;;;;;;;13.75;100.00;101321.09;10485083;28;20143;-80
2024/03/07 22:55:58;;;;;;;19.90;6.95;;;;;;;14.10;100.00;101321.47;10497220;28;20052;-81
2024/03/07 23:01:29;;;;;;;14.85;5.00;;;;;;;14.30;100.00;101302.22;10499653;28;20438;-81
2024/03/07 23:06:52;;;;;;;14.70;4.15;;;;;;;14.36;100.00;101307.56;10483418;28;20783;-81
2024/03/07 23:12:17;;;;;;;15.82;8.32;;;;;;;14.44;100.00;101294.38;10523532;28;20051;-81
2024/03/07 23:17:43;;;;;;;18.60;10.50;;;;;;;14.51;100.00;101300.63;10511981;28;20079;-81
2024/03/07 23:23:05;;;;;;;17.10;5.43;;;;;;;14.17;100.00;101304.75;10482129;28;20053;-81
2024/03/07 23:28:29;;;;;;;12.88;3.60;;;;;;;13.85;100.00;101315.88;10498667;28;20484;-80
2024/03/07 23:33:52;;;;;;;13.75;3.22;;;;;;;13.55;100.00;101308.47;10497708;28;20524;-81
2024/03/07 23:39:20;;;;;;;10.15;3.20;;;;;;;13.27;100.00;101303.69;10496069;28;20159;-82
2024/03/07 23:44:44;;;;;;;10.73;3.22;;;;;;;12.91;100.00;101300.50;10516900;28;20049;-82
2024/03/07 23:50:10;;;;;;;11.02;3.60;;;;;;;12.61;100.00;101298.25;10482253;28;20049;-81
2024/03/07 23:55:36;;;;;;;10.77;3.70;;;;;;;12.33;100.00;101289.00;10496507;28;20088;-81
